createdAt,value
2022-12-04T00:00:45.438Z,102185.38
2022-12-04T00:05:49.779Z,102186.28
2022-12-04T00:10:52.529Z,102179.44
2022-12-04T00:15:55.549Z,102179.25
2022-12-04T00:20:59.801Z,102181.09
2022-12-04T00:26:03.245Z,102180.75
2022-12-04T00:31:07.508Z,102175.75
2022-12-04T00:36:14.370Z,102167.81
2022-12-04T00:41:19.271Z,102155.59
2022-12-04T00:46:23.060Z,102160.22
2022-12-04T00:51:27.331Z,102157.81
2022-12-04T00:56:30.560Z,102158.91
2022-12-04T01:01:33.411Z,102153.53
2022-12-04T01:06:37.638Z,102163.34
2022-12-04T01:11:40.375Z,102159.84
2022-12-04T01:16:43.224Z,102139.31
2022-12-04T01:21:47.363Z,102143.75
2022-12-04T01:26:50.063Z,102138.00
2022-12-04T01:31:52.847Z,102143.94
2022-12-04T01:36:57.117Z,102135.06
2022-12-04T01:42:00.212Z,102131.00
2022-12-04T01:47:03.011Z,102128.97
2022-12-04T01:52:13.084Z,102138.19
2022-12-04T01:57:18.111Z,102133.78
2022-12-04T02:02:25.572Z,102139.84
2022-12-04T02:07:30.325Z,102140.78
2022-12-04T02:12:39.204Z,102136.38
2022-12-04T02:17:54.503Z,102140.22
2022-12-04T02:23:27.797Z,102141.69
2022-12-04T02:28:38.372Z,102137.59
2022-12-04T02:33:46.225Z,102143.91
2022-12-04T02:38:53.435Z,102138.53
2022-12-04T02:44:02.794Z,102131.34
2022-12-04T02:49:11.462Z,102134.09
2022-12-04T02:54:26.970Z,102130.19
2022-12-04T02:59:34.840Z,102125.19
2022-12-04T03:04:40.677Z,102118.19
2022-12-04T03:09:47.847Z,102114.84
2022-12-04T03:14:57.207Z,102114.28
2022-12-04T03:20:06.255Z,102109.50
2022-12-04T03:25:10.845Z,102114.69
2022-12-04T03:30:18.882Z,102110.81
2022-12-04T03:35:26.200Z,102113.41
2022-12-04T03:40:35.482Z,102112.28
2022-12-04T03:45:45.366Z,102111.94
2022-12-04T03:50:51.333Z,102106.75
2022-12-04T03:55:59.765Z,102100.84
2022-12-04T04:01:06.316Z,102095.13
2022-12-04T04:06:15.388Z,102098.81
2022-12-04T04:11:21.917Z,102092.53
2022-12-04T04:16:47.812Z,102087.19
2022-12-04T04:22:12.100Z,102100.69
2022-12-04T04:27:15.220Z,102090.16
2022-12-04T04:32:27.286Z,102100.31
2022-12-04T04:37:37.114Z,102090.53
2022-12-04T04:42:46.629Z,102101.63
2022-12-04T04:47:54.093Z,102098.13
2022-12-04T04:53:02.779Z,102092.94
2022-12-04T04:58:10.048Z,102094.81
2022-12-04T05:03:14.234Z,102090.38
2022-12-04T05:08:17.098Z,102089.25
2022-12-04T05:13:20.764Z,102100.38
2022-12-04T05:18:24.904Z,102104.81
2022-12-04T05:23:27.676Z,102101.66
2022-12-04T05:28:30.515Z,102088.75
2022-12-04T05:33:34.646Z,102090.78
2022-12-04T05:38:38.216Z,102090.97
2022-12-04T05:43:40.974Z,102091.88
2022-12-04T05:48:45.071Z,102100.56
2022-12-04T05:53:47.841Z,102105.94
2022-12-04T05:58:50.596Z,102098.16
2022-12-04T06:03:54.698Z,102091.31
2022-12-04T06:08:59.935Z,102086.31
2022-12-04T06:14:04.267Z,102082.47
2022-12-04T06:19:10.124Z,102097.47
2022-12-04T06:24:15.360Z,102103.34
2022-12-04T06:29:18.161Z,102092.81
2022-12-04T06:34:22.274Z,102093.56
2022-12-04T06:39:25.095Z,102090.97
2022-12-04T06:44:27.848Z,102091.16
2022-12-04T06:49:31.995Z,102088.00
2022-12-04T06:54:34.778Z,102099.44
2022-12-04T06:59:37.586Z,102102.97
2022-12-04T07:04:41.737Z,102099.63
2022-12-04T07:09:45.619Z,102097.97
2022-12-04T07:14:48.377Z,102100.00
2022-12-04T07:19:52.618Z,102086.47
2022-12-04T07:24:55.418Z,102083.13
2022-12-04T07:29:58.510Z,102084.44
2022-12-04T07:35:02.721Z,102080.50
2022-12-04T07:40:06.475Z,102097.09
2022-12-04T07:45:10.309Z,102090.97
2022-12-04T07:50:14.418Z,102097.44
2022-12-04T07:55:22.825Z,102095.00
2022-12-04T08:00:25.962Z,102089.44
2022-12-04T08:05:30.155Z,102092.31
2022-12-04T08:10:32.900Z,102093.19
2022-12-04T08:15:35.794Z,102087.97
2022-12-04T08:20:39.978Z,102086.06
2022-12-04T08:25:43.005Z,102087.69
2022-12-04T08:30:45.773Z,102088.72
2022-12-04T08:35:49.990Z,102101.44
2022-12-04T08:40:52.799Z,102097.88
2022-12-04T08:45:57.663Z,102103.91
2022-12-04T08:51:03.898Z,102100.34
2022-12-04T08:56:07.449Z,102101.78
2022-12-04T09:01:12.376Z,102105.41
2022-12-04T09:06:17.083Z,102114.28
2022-12-04T09:11:22.264Z,102115.88
2022-12-04T09:16:26.574Z,102113.97
2022-12-04T09:21:30.902Z,102108.53
2022-12-04T09:26:34.063Z,102108.31
2022-12-04T09:31:37.361Z,102104.56
2022-12-04T09:36:41.544Z,102099.88
2022-12-04T09:42:00.471Z,102102.22
2022-12-04T09:47:05.827Z,102097.72
2022-12-04T09:52:22.300Z,102089.84
2022-12-04T09:57:32.647Z,102082.72
2022-12-04T10:02:38.236Z,102068.91
2022-12-04T10:07:49.951Z,102059.19
2022-12-04T10:13:04.093Z,102055.50
2022-12-04T10:18:22.877Z,102048.53
2022-12-04T10:23:38.486Z,102036.69
2022-12-04T10:28:44.687Z,102038.75
2022-12-04T10:33:53.354Z,102041.88
2022-12-04T10:39:01.134Z,102026.34
2022-12-04T10:44:03.885Z,102030.06
2022-12-04T10:49:14.393Z,102028.59
2022-12-04T10:54:23.539Z,102023.91
2022-12-04T10:59:27.699Z,102021.16
2022-12-04T11:04:32.614Z,102008.50
2022-12-04T11:09:36.925Z,102005.03
2022-12-04T11:14:44.041Z,102018.03
2022-12-04T11:20:00.375Z,102020.34
2022-12-04T11:25:04.988Z,102016.53
2022-12-04T11:30:11.209Z,102015.16
2022-12-04T11:35:17.378Z,102010.13
2022-12-04T11:40:22.386Z,102003.41
2022-12-04T11:45:25.343Z,102008.59
2022-12-04T11:50:37.429Z,102004.91
2022-12-04T11:55:52.198Z,102003.41
2022-12-04T12:01:10.883Z,102000.31
2022-12-04T12:06:20.325Z,102000.94
2022-12-04T12:11:30.038Z,101994.66
2022-12-04T12:16:49.910Z,101991.91
2022-12-04T12:22:03.593Z,101994.34
2022-12-04T12:27:28.038Z,101984.25
2022-12-04T12:32:47.161Z,101985.47
2022-12-04T12:37:53.568Z,101977.66
2022-12-04T12:43:02.976Z,101972.13
2022-12-04T12:48:12.131Z,101974.88
2022-12-04T12:53:18.203Z,101970.16
2022-12-04T12:58:29.320Z,101969.69
2022-12-04T13:03:41.628Z,101962.19
2022-12-04T13:08:52.792Z,101969.25
2022-12-04T13:13:58.959Z,101963.28
2022-12-04T13:19:10.783Z,101969.88
2022-12-04T13:24:52.249Z,101961.63
2022-12-04T13:30:11.320Z,101945.06
2022-12-04T13:35:28.336Z,101947.81
2022-12-04T13:40:37.174Z,101951.03
2022-12-04T13:45:41.942Z,101946.16
2022-12-04T13:50:44.803Z,101936.50
2022-12-04T13:55:57.296Z,101943.22
2022-12-04T14:01:13.111Z,101936.50
2022-12-04T14:06:25.487Z,101936.50
2022-12-04T14:11:30.328Z,101937.88
2022-12-04T14:16:39.732Z,101939.56
2022-12-04T14:21:45.065Z,101948.88
2022-12-04T14:32:18.886Z,101954.56
2022-12-04T14:37:27.942Z,101949.94
2022-12-04T14:42:37.652Z,101956.81
2022-12-04T14:47:49.749Z,101953.13
2022-12-04T14:53:00.548Z,101955.59
2022-12-04T14:58:28.866Z,101961.22
2022-12-04T15:03:36.914Z,101961.06
2022-12-04T15:08:50.218Z,101954.03
2022-12-04T15:13:52.958Z,101961.06
2022-12-04T15:18:58.739Z,101960.63
2022-12-04T15:24:01.602Z,101962.13
2022-12-04T15:29:07.463Z,101962.78
2022-12-04T15:34:16.635Z,101965.03
2022-12-04T15:39:24.192Z,101957.84
2022-12-04T15:44:30.885Z,101946.06
2022-12-04T15:49:35.092Z,101947.28
2022-12-04T15:54:42.881Z,101942.69
2022-12-04T15:59:50.696Z,101944.50
2022-12-04T16:04:54.897Z,101934.22
2022-12-04T16:10:03.592Z,101937.63
2022-12-04T16:15:08.615Z,101933.31
2022-12-04T16:20:14.466Z,101927.06
2022-12-04T16:25:18.509Z,101927.81
2022-12-04T16:30:21.497Z,101929.66
2022-12-04T16:35:25.915Z,101932.28
2022-12-04T16:40:28.679Z,101928.72
2022-12-04T16:45:34.345Z,101923.53
2022-12-04T16:50:38.556Z,101925.38
2022-12-04T16:55:41.545Z,101922.78
2022-12-04T17:00:46.999Z,101929.97
2022-12-04T17:05:51.457Z,101931.97
2022-12-04T17:10:54.620Z,101931.34
2022-12-04T17:15:58.847Z,101930.31
2022-12-04T17:21:06.247Z,101926.81
2022-12-04T17:26:11.472Z,101938.72
2022-12-04T17:31:17.327Z,101947.28
2022-12-04T17:36:23.628Z,101945.31
2022-12-04T17:41:26.669Z,101939.22
2022-12-04T17:46:29.570Z,101941.03
2022-12-04T17:51:35.130Z,101933.09
2022-12-04T17:56:38.123Z,101941.81
2022-12-04T18:01:40.953Z,101933.09
2022-12-04T18:06:46.512Z,101928.03
2022-12-04T18:11:49.407Z,101926.22
2022-12-04T18:16:54.553Z,101927.28
2022-12-04T18:21:58.768Z,101922.41
2022-12-04T18:27:03.607Z,101930.34
2022-12-04T18:32:06.561Z,101931.59
2022-12-04T18:37:10.676Z,101922.09
2022-12-04T18:42:13.662Z,101931.91
2022-12-04T18:47:16.481Z,101928.69
2022-12-04T18:52:20.713Z,101934.81
2022-12-04T18:57:23.851Z,101940.31
2022-12-04T19:02:27.019Z,101939.84
2022-12-04T19:07:31.263Z,101931.75
2022-12-04T19:12:34.163Z,101938.97
2022-12-04T19:17:37.298Z,101932.97
2022-12-04T19:22:41.854Z,101939.41
2022-12-04T19:27:44.608Z,101935.25
2022-12-04T19:32:47.353Z,101940.63
2022-12-04T19:37:54.239Z,101940.63
2022-12-04T19:43:02.670Z,101936.66
2022-12-04T19:48:10.495Z,101929.00
2022-12-04T19:53:14.618Z,101930.06
2022-12-04T19:58:17.401Z,101929.91
2022-12-04T20:03:20.158Z,101939.41
2022-12-04T20:08:24.239Z,101934.06
2022-12-04T20:13:27.117Z,101935.28
2022-12-04T20:18:30.151Z,101936.22
2022-12-04T20:23:34.278Z,101941.56
2022-12-04T20:28:37.404Z,101940.16
2022-12-04T20:33:41.193Z,101948.13
2022-12-04T20:38:45.774Z,101937.88
2022-12-04T20:43:49.306Z,101926.13
2022-12-04T20:48:53.614Z,101925.16
2022-12-04T20:54:00.970Z,101917.22
2022-12-04T20:59:06.105Z,101916.75
2022-12-04T21:04:09.214Z,101908.97
2022-12-04T21:09:15.838Z,101912.34
2022-12-04T21:14:38.058Z,101907.75
2022-12-04T21:19:40.821Z,101898.84
2022-12-04T21:24:44.942Z,101901.00
2022-12-04T21:29:47.823Z,101900.09
2022-12-04T21:34:51.932Z,101890.59
2022-12-04T21:39:56.256Z,101886.31
2022-12-04T21:44:59.662Z,101884.03
2022-12-04T21:50:02.517Z,101879.91
2022-12-04T21:55:07.253Z,101866.88
2022-12-04T22:00:10.980Z,101857.09
2022-12-04T22:05:13.761Z,101862.59
2022-12-04T22:10:17.979Z,101858.31
2022-12-04T22:15:20.706Z,101859.09
2022-12-04T22:20:23.571Z,101860.78
2022-12-04T22:25:29.665Z,101859.09
2022-12-04T22:30:34.910Z,101865.19
2022-12-04T22:35:37.706Z,101869.63
2022-12-04T22:40:41.823Z,101869.63
2022-12-04T22:45:45.462Z,101869.50
2022-12-04T22:50:56.832Z,101857.09
2022-12-04T22:56:06.618Z,101869.34
2022-12-04T23:01:10.984Z,101861.38
2022-12-04T23:06:14.552Z,101859.09
2022-12-04T23:11:21.128Z,101856.34
2022-12-04T23:16:25.400Z,101857.84
2022-12-04T23:21:28.710Z,101840.75
2022-12-04T23:26:35.246Z,101842.91
2022-12-04T23:31:38.201Z,101835.41
2022-12-04T23:36:41.071Z,101836.75
2022-12-04T23:42:39.749Z,101831.41
2022-12-04T23:47:43.856Z,101825.47
2022-12-04T23:52:46.618Z,101814.75
2022-12-04T23:57:49.393Z,101820.09
